• Join FlightAware (Why Join?)
  • Login
  • US Flag 
01:20AM EDT


 

Airport Tracker/Info


-or-


 

Live Flight TrackerFlight Track Log ✈ N641BB ✈ 25-Apr-2013 ✈ KPBX - KLEX

Flight Track Log - Related Links

Times and Time Zones

All times are in EDT time to prevent confusion due to time zone crossing. See the N641BB flight status page for this flight to view local times or setup timezone preferences in your user account.

Time Position Orientation Groundspeed Altitude Reporting Facility
EDT Latitude Longitude Course Direction KTS MPH feet Rate Location/Type
12:05PM 37.5817 -82.6450 293° West 114 131 2,700  Level Indianapolis Center
12:06PM 37.5942 -82.6819 293° West 115 132 3,300 480 Climbing Indianapolis Center
12:07PM 37.6069 -82.7181 294° West 114 131 3,800 300 Climbing Indianapolis Center
12:08PM 37.6172 -82.7575 288° West 115 132 4,000 60 Climbing Indianapolis Center
12:09PM 37.6286 -82.7997 289° West 120 138 4,000  Level Indianapolis Center
12:10PM 37.6414 -82.8517 287° West 127 146 4,000  Level Indianapolis Center
12:11PM 37.6517 -82.8978 286° West 132 152 4,100  Climbing Indianapolis Center
12:12PM 37.6633 -82.9444 288° West 135 155 4,000 -60 Descending Indianapolis Center
12:13PM 37.6731 -82.9914 285° West 138 159 4,000  Level Indianapolis Center
12:14PM 37.6836 -83.0353 287° West 135 155 4,000  Level Indianapolis Center
12:15PM 37.6944 -83.0797 287° West 133 153 4,000  Level Indianapolis Center
12:16PM 37.7053 -83.1269 286° West 136 157 4,000  Level Indianapolis Center
12:17PM 37.7172 -83.1800 286° West 136 157 4,000  Level Indianapolis Center
12:18PM 37.7281 -83.2258 287° West 136 157 4,000  Level Indianapolis Center
12:19PM 37.7389 -83.2728 286° West 137 158 4,000  Level Indianapolis Center
12:20PM 37.7494 -83.3194 286° West 138 159 4,000  Level Indianapolis Center
12:21PM 37.7603 -83.3661 286° West 138 159 4,000  Level Indianapolis Center
12:22PM 37.7708 -83.4111 287° West 136 157 4,000  Level Indianapolis Center
12:23PM 37.7831 -83.4639 286° West 135 155 4,000  Level Indianapolis Center
12:25PM 37.7942 -83.5094 287° West 135 155 4,000  Level Indianapolis Center
12:26PM 37.8025 -83.5539 283° West 133 153 4,000  Level Indianapolis Center
12:27PM 37.8128 -83.5978 287° West 132 152 4,100  Climbing Indianapolis Center
12:28PM 37.8247 -83.6442 288° West 134 154 4,000 -60 Descending Indianapolis Center
12:29PM 37.8347 -83.6906 285° West 136 157 4,000  Level Indianapolis Center
12:30PM 37.8458 -83.7417 285° West 132 152 4,100  Climbing Indianapolis Center
12:31PM 37.8556 -83.7861 285° West 131 151 4,000 -60 Descending Indianapolis Center
12:32PM 37.8658 -83.8303 286° West 131 151 4,000  Level Indianapolis Center
12:33PM 37.8764 -83.8742 287° West 130 150 4,000  Level Indianapolis Center
12:34PM 37.8858 -83.9197 285° West 132 152 4,000  Level Indianapolis Center
12:35PM 37.8958 -83.9647 286° West 132 152 4,000  Level Indianapolis Center
12:36PM 37.9075 -84.0183 285° West 134 154 4,000  Level Indianapolis Center
12:37PM 37.9181 -84.0656 286° West 136 157 4,000  Level Indianapolis Center
12:38PM 37.9278 -84.1114 285° West 136 157 4,000  Level Indianapolis Center
12:39PM 37.9383 -84.1567 286° West 135 155 4,000  Level Indianapolis Center
12:40PM 37.9481 -84.2011 286° West 133 153 4,000  Level Indianapolis Center
12:41PM 37.9581 -84.2461 286° West 132 152 4,000  Level Indianapolis Center
12:42PM 37.9692 -84.2994 285° West 133 153 4,000  Level Indianapolis Center
12:43PM 37.9789 -84.3436 286° West 132 152 4,000  Level Indianapolis Center
12:44PM 37.9881 -84.3881 285° West 131 151 4,000 -300 Level Indianapolis Center
12:45PM 38.0014 -84.4314 291° West 132 152 3,400 -540 Descending Indianapolis Center
12:46PM 38.0197 -84.4714 300° West 132 152 3,000 -480 Descending Indianapolis Center
12:47PM 38.0364 -84.5033 304° West 120 138 2,500 -300 Descending Indianapolis Center
12:48PM 38.0539 -84.5344 306° West 116 133 2,500  Level Indianapolis Center
12:50PM 38.0414 -84.5884 302° West  Level Estimated
12:57PM 38.0333 -84.6000 302° West  Level FlightAware Approximate
12:58PM 38.0368 -84.6086 302° West  Level Estimated
12:59PM 38.0368 -84.6086 302° West  Level Estimated